Terminal Aerodrome Forecast
Issued by NWS Pittsburgh, PA

Current Version | Previous Version | Graphics & Text | Print | Product List | Glossary On
Versions: 1 2 3 4 5 6 7 8 9 10 11 12 13 14 15 16 17 18 19 20 21 22 23 24 25 26 27 28
914
FTUS41 KPBZ 052056 AAA
TAFPIT
TAF AMD
KPIT 052056Z 0521/0624 28006KT P6SM BKN027
     FM060000 VRB03KT P6SM BKN200
     FM061500 11008KT P6SM -RA OVC040
     FM061800 13009KT 2SM -RA OVC015=

USA.gov is the U.S. government's official web portal to all federal, state and local government web resources and services.